Time,TemperatureF,DewpointF,PressureIn,WindDirection,WindDirectionDegrees,WindSpeedMPH,WindSpeedGustMPH,Humidity,HourlyPrecipIn,Conditions,Clouds,dailyrainin,SoftwareType,DateUTC
2013-03-22 07:11:00,69.9,63.4,30.03,NW,315,1.0,1.0,80,0.00,,,0.00,Weather View 32 v70,2013-03-22 17:11:00,
2013-03-22 07:12:00,69.9,63.8,30.03,North,10,2.0,2.0,81,0.00,,,0.00,Weather View 32 v70,2013-03-22 17:12:00,
2013-03-22 07:17:00,69.9,63.8,30.03,NNE,22,3.0,3.0,81,0.00,,,0.00,Weather View 32 v70,2013-03-22 17:17:00,
2013-03-22 07:22:00,69.8,63.7,30.03,NNE,22,2.0,5.0,81,0.00,,,0.00,Weather View 32 v70,2013-03-22 17:22:00,
2013-03-22 07:27:00,69.6,63.5,30.03,NNE,22,2.0,5.0,81,0.00,,,0.00,Weather View 32 v70,2013-03-22 17:27:00,
2013-03-22 07:32:00,69.7,63.6,30.03,NNE,33,4.0,5.0,81,0.00,,,0.00,Weather View 32 v70,2013-03-22 17:32:00,
2013-03-22 07:37:00,69.9,63.8,30.03,NE,34,2.0,5.0,81,0.00,,,0.00,Weather View 32 v70,2013-03-22 17:37:00,
2013-03-22 07:42:00,70.3,64.2,30.03,NE,54,3.0,5.0,81,0.00,,,0.00,Weather View 32 v70,2013-03-22 17:42:00,
2013-03-22 07:47:00,70.6,64.8,30.04,NE,40,3.0,5.0,82,0.00,,,0.00,Weather View 32 v70,2013-03-22 17:47:00,
2013-03-22 07:53:00,70.5,64.7,30.04,NE,41,2.0,5.0,82,0.00,,,0.00,Weather View 32 v70,2013-03-22 17:53:00,
2013-03-22 07:58:00,70.4,64.6,30.04,NE,41,1.0,5.0,82,0.00,,,0.00,Weather View 32 v70,2013-03-22 17:58:00,
2013-03-22 08:03:00,70.4,64.6,30.04,NE,40,2.0,5.0,82,0.00,,,0.00,Weather View 32 v70,2013-03-22 18:03:00,
2013-03-22 08:08:00,70.6,65.2,30.04,NE,42,1.0,5.0,83,0.00,,,0.00,Weather View 32 v70,2013-03-22 18:08:00,
2013-03-22 08:13:00,70.7,65.3,30.04,NE,44,0.0,5.0,83,0.00,,,0.00,Weather View 32 v70,2013-03-22 18:13:00,
2013-03-22 08:18:00,70.8,65.4,30.04,NE,46,0.0,5.0,83,0.00,,,0.00,Weather View 32 v70,2013-03-22 18:18:00,
2013-03-22 08:23:00,70.7,65.3,30.04,NE,45,2.0,5.0,83,0.00,,,0.00,Weather View 32 v70,2013-03-22 18:23:00,
2013-03-22 08:28:00,70.6,65.2,30.04,NE,47,2.0,5.0,83,0.00,,,0.00,Weather View 32 v70,2013-03-22 18:28:00,
2013-03-22 08:33:00,70.5,65.1,30.04,NE,37,1.0,5.0,83,0.00,,,0.00,Weather View 32 v70,2013-03-22 18:33:00,
2013-03-22 08:38:00,70.5,65.1,30.05,NE,37,1.0,5.0,83,0.00,,,0.00,Weather View 32 v70,2013-03-22 18:38:00,
2013-03-22 08:43:00,70.4,65.0,30.05,NE,37,1.0,5.0,83,0.00,,,0.00,Weather View 32 v70,2013-03-22 18:43:00,
2013-03-22 08:48:00,70.5,65.4,30.05,NE,37,1.0,5.0,84,0.00,,,0.00,Weather View 32 v70,2013-03-22 18:48:00,
2013-03-22 08:53:00,70.6,65.5,30.05,NE,37,0.0,5.0,84,0.00,,,0.00,Weather View 32 v70,2013-03-22 18:53:00,
2013-03-22 08:58:00,70.8,65.7,30.05,NE,37,1.0,5.0,84,0.00,,,0.00,Weather View 32 v70,2013-03-22 18:58:00,
2013-03-22 09:03:00,70.9,65.5,30.05,NE,37,0.0,5.0,83,0.00,,,0.00,Weather View 32 v70,2013-03-22 19:03:00,
2013-03-22 09:09:00,71.2,65.8,30.04,NE,37,0.0,5.0,83,0.00,,,0.00,Weather View 32 v70,2013-03-22 19:09:00,
2013-03-22 09:10:00,71.3,65.8,30.05,NE,37,1.0,5.0,83,0.00,,,0.00,Weather View 32 v70,2013-03-22 19:10:00,
2013-03-22 09:14:00,71.4,65.9,30.05,East,101,3.0,5.0,83,0.00,,,0.00,Weather View 32 v70,2013-03-22 19:14:00,
2013-03-22 09:15:00,71.5,66.0,30.05,East,101,0.0,5.0,83,0.00,,,0.00,Weather View 32 v70,2013-03-22 19:15:00,
2013-03-22 09:20:00,72.0,66.2,30.05,ESE,102,2.0,5.0,82,0.00,,,0.00,Weather View 32 v70,2013-03-22 19:20:00,
2013-03-22 09:26:00,72.2,66.0,30.05,SE,139,3.0,5.0,81,0.00,,,0.00,Weather View 32 v70,2013-03-22 19:26:00,
2013-03-22 09:30:00,72.1,65.9,30.05,SSE,156,3.0,7.0,81,0.00,,,0.00,Weather View 32 v70,2013-03-22 19:30:00,
2013-03-22 09:32:00,72.0,65.8,30.05,SE,136,2.0,7.0,81,0.00,,,0.00,Weather View 32 v70,2013-03-22 19:32:00,
2013-03-22 09:38:00,72.0,65.8,30.04,SE,137,4.0,9.0,81,0.00,,,0.00,Weather View 32 v70,2013-03-22 19:38:00,
2013-03-22 09:40:00,72.1,65.9,30.05,SSE,155,7.0,9.0,81,0.00,,,0.00,Weather View 32 v70,2013-03-22 19:40:00,
2013-03-22 09:44:00,72.1,65.6,30.05,SE,144,5.0,11.0,80,0.00,,,0.00,Weather View 32 v70,2013-03-22 19:44:00,
2013-03-22 09:49:00,72.0,65.1,30.05,South,179,7.0,11.0,79,0.00,,,0.00,Weather View 32 v70,2013-03-22 19:49:00,
2013-03-22 09:50:00,72.0,65.5,30.04,SSE,168,8.0,11.0,80,0.00,,,0.00,Weather View 32 v70,2013-03-22 19:50:00,
2013-03-22 09:54:00,72.2,65.3,30.05,SSE,154,8.0,11.0,79,0.00,,,0.00,Weather View 32 v70,2013-03-22 19:54:00,
2013-03-22 10:00:00,72.3,65.4,30.05,SE,143,2.0,11.0,79,0.00,,,0.00,Weather View 32 v70,2013-03-22 20:00:00,
2013-03-22 10:06:00,72.4,65.1,30.04,SSE,160,7.0,11.0,78,0.00,,,0.00,Weather View 32 v70,2013-03-22 20:06:00,
2013-03-22 10:11:00,72.4,64.8,30.04,SSE,164,11.0,13.0,77,0.00,,,0.00,Weather View 32 v70,2013-03-22 20:11:00,
2013-03-22 10:17:00,72.5,64.9,30.05,SSE,147,12.0,13.0,77,0.00,,,0.00,Weather View 32 v70,2013-03-22 20:17:00,
2013-03-22 10:20:00,72.5,64.9,30.04,SSE,156,9.0,13.0,77,0.00,,,0.00,Weather View 32 v70,2013-03-22 20:20:00,
2013-03-22 10:22:00,72.5,64.9,30.04,SSE,166,9.0,14.0,77,0.00,,,0.00,Weather View 32 v70,2013-03-22 20:22:00,
2013-03-22 10:29:00,72.7,65.0,30.04,South,186,7.0,15.0,77,0.00,,,0.00,Weather View 32 v70,2013-03-22 20:29:00,
2013-03-22 10:35:00,72.8,65.1,30.04,SSE,154,12.0,15.0,77,0.00,,,0.00,Weather View 32 v70,2013-03-22 20:35:00,
2013-03-22 10:45:00,72.8,65.5,30.04,SSE,147,14.0,15.0,78,0.00,,,0.00,Weather View 32 v70,2013-03-22 20:45:00,
2013-03-22 10:50:00,72.5,64.9,30.03,South,173,13.0,16.0,77,0.00,,,0.00,Weather View 32 v70,2013-03-22 20:50:00,
2013-03-22 10:56:00,72.7,65.4,30.03,SSE,156,11.0,16.0,78,0.00,,,0.00,Weather View 32 v70,2013-03-22 20:56:00,
2013-03-22 11:02:00,72.5,65.2,30.03,SE,141,5.0,16.0,78,0.00,,,0.00,Weather View 32 v70,2013-03-22 21:02:00,
2013-03-22 11:08:00,72.8,65.5,30.03,SSE,148,10.0,16.0,78,0.00,,,0.00,Weather View 32 v70,2013-03-22 21:08:00,
2013-03-22 11:13:00,73.0,66.1,30.02,SSE,159,16.0,16.0,79,0.00,,,0.00,Weather View 32 v70,2013-03-22 21:13:00,
2013-03-22 11:20:00,72.8,65.9,30.03,SSE,156,9.0,16.0,79,0.00,,,0.00,Weather View 32 v70,2013-03-22 21:20:00,
2013-03-22 11:25:00,73.0,66.1,30.02,South,174,13.0,17.0,79,0.00,,,0.00,Weather View 32 v70,2013-03-22 21:25:00,
2013-03-22 11:30:00,73.3,66.4,30.02,South,179,14.0,17.0,79,0.00,,,0.00,Weather View 32 v70,2013-03-22 21:30:00,
2013-03-22 11:35:00,73.8,66.9,30.02,South,174,11.0,18.0,79,0.00,,,0.00,Weather View 32 v70,2013-03-22 21:35:00,
2013-03-22 11:43:00,74.3,66.6,30.01,SE,145,14.0,19.0,77,0.00,,,0.00,Weather View 32 v70,2013-03-22 21:43:00,
2013-03-22 11:50:00,74.6,66.5,30.01,SE,141,14.0,21.0,76,0.00,,,0.00,Weather View 32 v70,2013-03-22 21:50:00,
2013-03-22 11:56:00,74.4,66.3,30.01,SSE,149,16.0,21.0,76,0.00,,,0.00,Weather View 32 v70,2013-03-22 21:56:00,
2013-03-22 12:02:00,74.7,66.2,30.01,SE,132,11.0,21.0,75,0.00,,,0.00,Weather View 32 v70,2013-03-22 22:02:00,
2013-03-22 12:07:00,75.2,64.7,30.00,South,189,8.0,21.0,70,0.00,,,0.00,Weather View 32 v70,2013-03-22 22:07:00,
2013-03-22 12:10:00,75.0,63.7,30.00,SSE,154,10.0,21.0,68,0.00,,,0.00,Weather View 32 v70,2013-03-22 22:10:00,
2013-03-22 12:13:00,75.3,64.4,30.00,South,190,8.0,21.0,69,0.00,,,0.00,Weather View 32 v70,2013-03-22 22:13:00,
2013-03-22 12:19:00,75.9,64.1,30.00,SSW,208,8.0,21.0,67,0.00,,,0.00,Weather View 32 v70,2013-03-22 22:19:00,
2013-03-22 12:24:00,76.3,64.1,29.99,SE,140,10.0,21.0,66,0.00,,,0.00,Weather View 32 v70,2013-03-22 22:24:00,
2013-03-22 12:30:00,76.8,63.2,29.99,SSW,203,7.0,21.0,63,0.00,,,0.00,Weather View 32 v70,2013-03-22 22:30:00,
2013-03-22 12:37:00,77.2,62.7,29.99,SSE,160,8.0,21.0,61,0.00,,,0.00,Weather View 32 v70,2013-03-22 22:37:00,
2013-03-22 12:43:00,77.1,62.6,29.99,SSW,208,6.0,21.0,61,0.00,,,0.00,Weather View 32 v70,2013-03-22 22:43:00,
2013-03-22 12:48:00,76.7,62.7,29.98,South,177,15.0,19.0,62,0.00,,,0.00,Weather View 32 v70,2013-03-22 22:48:00,
2013-03-22 12:54:00,76.7,63.1,29.98,SSW,203,14.0,19.0,63,0.00,,,0.00,Weather View 32 v70,2013-03-22 22:54:00,
2013-03-22 13:00:00,76.6,63.0,29.98,SSW,206,14.0,19.0,63,0.00,,,0.00,Weather View 32 v70,2013-03-22 23:00:00,
2013-03-22 13:05:00,76.7,63.6,29.98,SW,219,3.0,19.0,64,0.00,,,0.00,Weather View 32 v70,2013-03-22 23:05:00,
2013-03-22 13:10:00,77.7,63.1,29.98,ENE,66,2.0,19.0,61,0.00,,,0.00,Weather View 32 v70,2013-03-22 23:10:00,
2013-03-22 13:15:00,78.6,63.0,29.98,NNW,327,5.0,19.0,59,0.00,,,0.00,Weather View 32 v70,2013-03-22 23:15:00,
2013-03-22 13:22:00,77.6,63.5,29.98,South,188,8.0,19.0,62,0.00,,,0.00,Weather View 32 v70,2013-03-22 23:22:00,
2013-03-22 13:27:00,76.7,63.6,29.98,North,353,4.0,18.0,64,0.00,,,0.00,Weather View 32 v70,2013-03-22 23:27:00,
2013-03-22 13:32:00,77.0,63.4,29.98,SSW,210,4.0,18.0,63,0.00,,,0.00,Weather View 32 v70,2013-03-22 23:32:00,
2013-03-22 13:37:00,77.2,63.6,29.98,SE,143,3.0,18.0,63,0.00,,,0.00,Weather View 32 v70,2013-03-22 23:37:00,
2013-03-22 13:44:00,77.1,63.9,29.97,South,191,10.0,18.0,64,0.00,,,0.00,Weather View 32 v70,2013-03-22 23:44:00,
2013-03-22 13:51:00,75.8,63.2,29.96,SSW,195,11.0,18.0,65,0.00,,,0.00,Weather View 32 v70,2013-03-22 23:51:00,
2013-03-22 13:56:00,74.9,63.2,29.96,SSW,197,9.0,18.0,67,0.00,,,0.00,Weather View 32 v70,2013-03-22 23:56:00,
2013-03-22 14:10:00,75.0,63.7,29.97,South,178,11.0,16.0,68,0.00,,,0.00,Weather View 32 v70,2013-03-23 00:10:00,
2013-03-22 14:14:00,74.5,64.0,29.96,SSW,199,15.0,16.0,70,0.00,,,0.00,Weather View 32 v70,2013-03-23 00:14:00,
2013-03-22 14:15:00,74.2,63.7,29.96,SW,222,9.0,17.0,70,0.00,,,0.00,Weather View 32 v70,2013-03-23 00:15:00,
2013-03-22 14:20:00,73.5,63.1,29.96,SSW,201,10.0,19.0,70,0.00,,,0.00,Weather View 32 v70,2013-03-23 00:20:00,
2013-03-22 14:25:00,73.4,63.0,29.96,SW,218,13.0,19.0,70,0.00,,,0.00,Weather View 32 v70,2013-03-23 00:25:00,
2013-03-22 14:33:00,73.1,63.1,29.96,SW,218,20.0,21.0,71,0.00,,,0.00,Weather View 32 v70,2013-03-23 00:33:00,
2013-03-22 14:40:00,73.0,62.2,29.96,SSW,197,2.0,22.0,69,0.00,,,0.00,Weather View 32 v70,2013-03-23 00:40:00,
2013-03-22 14:43:00,73.1,62.3,29.96,South,178,2.0,22.0,69,0.00,,,0.00,Weather View 32 v70,2013-03-23 00:43:00,
2013-03-22 14:45:00,73.2,62.4,29.95,South,170,7.0,22.0,69,0.00,,,0.00,Weather View 32 v70,2013-03-23 00:45:00,
2013-03-22 14:49:00,73.4,61.7,29.96,SSE,158,0.0,22.0,67,0.00,,,0.00,Weather View 32 v70,2013-03-23 00:49:00,
2013-03-22 14:50:00,73.5,61.8,29.95,North,0,10.0,22.0,67,0.00,,,0.00,Weather View 32 v70,2013-03-23 00:50:00,
2013-03-22 14:55:00,73.8,61.7,29.95,North,0,13.0,22.0,66,0.00,,,0.00,Weather View 32 v70,2013-03-23 00:55:00,
2013-03-22 15:00:00,73.8,61.3,29.95,WSW,239,9.0,22.0,65,0.00,,,0.00,Weather View 32 v70,2013-03-23 01:00:00,
2013-03-22 15:06:00,73.8,60.8,29.95,SW,217,15.0,22.0,64,0.00,,,0.00,Weather View 32 v70,2013-03-23 01:06:00,
2013-03-22 15:12:00,73.7,59.8,29.94,South,189,12.0,22.0,62,0.00,,,0.00,Weather View 32 v70,2013-03-23 01:12:00,
2013-03-22 15:17:00,73.6,60.2,29.95,SW,234,12.0,22.0,63,0.00,,,0.00,Weather View 32 v70,2013-03-23 01:17:00,
2013-03-22 15:23:00,73.5,60.1,29.95,SW,214,8.0,22.0,63,0.00,,,0.00,Weather View 32 v70,2013-03-23 01:23:00,
2013-03-22 15:25:00,73.6,60.2,29.95,SSW,195,3.0,22.0,63,0.00,,,0.00,Weather View 32 v70,2013-03-23 01:25:00,
2013-03-22 15:28:00,73.6,60.6,29.95,South,187,8.0,22.0,64,0.00,,,0.00,Weather View 32 v70,2013-03-23 01:28:00,
2013-03-22 15:30:00,73.6,60.2,29.95,SSW,196,5.0,22.0,63,0.00,,,0.00,Weather View 32 v70,2013-03-23 01:30:00,
2013-03-22 15:35:00,73.6,60.2,29.95,SSW,203,12.0,19.0,63,0.00,,,0.00,Weather View 32 v70,2013-03-23 01:35:00,
2013-03-22 15:40:00,73.5,60.1,29.95,South,185,10.0,19.0,63,0.00,,,0.00,Weather View 32 v70,2013-03-23 01:40:00,
2013-03-22 15:44:00,73.3,60.3,29.95,SSW,195,3.0,19.0,64,0.00,,,0.00,Weather View 32 v70,2013-03-23 01:44:00,
2013-03-22 15:50:00,73.3,60.3,29.95,SSW,213,8.0,19.0,64,0.00,,,0.00,Weather View 32 v70,2013-03-23 01:50:00,
2013-03-22 15:57:00,73.2,60.7,29.95,SSW,207,10.0,19.0,65,0.00,,,0.00,Weather View 32 v70,2013-03-23 01:57:00,
2013-03-22 16:02:00,73.1,60.6,29.95,South,183,7.0,17.0,65,0.00,,,0.00,Weather View 32 v70,2013-03-23 02:02:00,
2013-03-22 16:05:00,73.1,60.6,29.95,South,185,7.0,17.0,65,0.00,,,0.00,Weather View 32 v70,2013-03-23 02:05:00,
2013-03-22 16:07:00,73.0,60.5,29.94,South,181,6.0,17.0,65,0.00,,,0.00,Weather View 32 v70,2013-03-23 02:07:00,
2013-03-22 16:15:00,72.8,61.2,29.95,SSW,192,9.0,17.0,67,0.00,,,0.00,Weather View 32 v70,2013-03-23 02:15:00,
2013-03-22 16:20:00,72.7,61.5,29.95,SSW,194,4.0,17.0,68,0.00,,,0.00,Weather View 32 v70,2013-03-23 02:20:00,
2013-03-22 16:25:00,72.6,61.8,29.95,SSW,197,8.0,17.0,69,0.00,,,0.00,Weather View 32 v70,2013-03-23 02:25:00,
2013-03-22 16:27:00,72.6,61.8,29.95,SSW,207,10.0,17.0,69,0.00,,,0.00,Weather View 32 v70,2013-03-23 02:27:00,
2013-03-22 16:32:00,72.4,62.0,29.95,SSW,211,4.0,17.0,70,0.00,,,0.00,Weather View 32 v70,2013-03-23 02:32:00,
2013-03-22 16:37:00,72.3,62.3,29.95,SSW,210,4.0,17.0,71,0.00,,,0.00,Weather View 32 v70,2013-03-23 02:37:00,
2013-03-22 16:43:00,72.4,62.4,29.95,WSW,256,6.0,17.0,71,0.00,,,0.00,Weather View 32 v70,2013-03-23 02:43:00,
2013-03-22 16:48:00,72.4,62.8,29.95,SW,216,11.0,17.0,72,0.00,,,0.00,Weather View 32 v70,2013-03-23 02:48:00,
2013-03-22 16:54:00,72.1,62.5,29.95,SSW,203,12.0,17.0,72,0.00,,,0.00,Weather View 32 v70,2013-03-23 02:54:00,
2013-03-22 16:55:00,72.1,62.5,29.95,SSW,203,10.0,17.0,72,0.00,,,0.00,Weather View 32 v70,2013-03-23 02:55:00,
2013-03-22 17:00:00,72.1,62.9,29.96,SSW,192,5.0,17.0,73,0.00,,,0.00,Weather View 32 v70,2013-03-23 03:00:00,
2013-03-22 17:06:00,72.1,62.9,29.96,SSE,168,8.0,17.0,73,0.00,,,0.00,Weather View 32 v70,2013-03-23 03:06:00,
2013-03-22 17:12:00,71.9,62.7,29.96,South,180,10.0,17.0,73,0.00,,,0.00,Weather View 32 v70,2013-03-23 03:12:00,
2013-03-22 17:20:00,71.9,62.7,29.96,South,191,8.0,17.0,73,0.00,,,0.00,Weather View 32 v70,2013-03-23 03:20:00,
2013-03-22 17:28:00,71.8,62.6,29.96,WSW,243,8.0,17.0,73,0.00,,,0.00,Weather View 32 v70,2013-03-23 03:28:00,
2013-03-22 17:33:00,71.8,63.0,29.96,SW,226,11.0,16.0,74,0.00,,,0.00,Weather View 32 v70,2013-03-23 03:33:00,
2013-03-22 17:35:00,71.8,63.0,29.97,West,260,15.0,16.0,74,0.00,,,0.00,Weather View 32 v70,2013-03-23 03:35:00,
2013-03-22 17:38:00,71.7,62.9,29.97,South,191,4.0,17.0,74,0.00,,,0.00,Weather View 32 v70,2013-03-23 03:38:00,
2013-03-22 17:43:00,71.7,62.9,29.97,SSW,201,9.0,17.0,74,0.00,,,0.00,Weather View 32 v70,2013-03-23 03:43:00,
2013-03-22 17:48:00,71.7,62.9,29.97,SSW,200,7.0,17.0,74,0.00,,,0.00,Weather View 32 v70,2013-03-23 03:48:00,
2013-03-22 17:54:00,71.5,62.7,29.97,SSW,207,3.0,17.0,74,0.00,,,0.00,Weather View 32 v70,2013-03-23 03:54:00,
2013-03-22 17:59:00,71.5,62.7,29.98,SW,214,5.0,17.0,74,0.00,,,0.00,Weather View 32 v70,2013-03-23 03:59:00,
2013-03-22 18:00:00,71.5,62.7,29.97,WNW,289,3.0,17.0,74,0.00,,,0.00,Weather View 32 v70,2013-03-23 04:00:00,
2013-03-22 18:05:00,71.4,62.7,29.98,SSW,205,3.0,17.0,74,0.00,,,0.00,Weather View 32 v70,2013-03-23 04:05:00,
2013-03-22 18:10:00,71.5,62.7,29.97,South,190,7.0,17.0,74,0.00,,,0.00,Weather View 32 v70,2013-03-23 04:10:00,
2013-03-22 18:15:00,71.5,62.7,29.97,West,278,2.0,17.0,74,0.00,,,0.00,Weather View 32 v70,2013-03-23 04:15:00,
2013-03-22 18:20:00,71.4,62.7,29.98,WSW,245,3.0,17.0,74,0.00,,,0.00,Weather View 32 v70,2013-03-23 04:20:00,
2013-03-22 18:25:00,71.3,62.6,29.98,SSW,210,4.0,17.0,74,0.00,,,0.00,Weather View 32 v70,2013-03-23 04:25:00,
2013-03-22 18:30:00,71.3,62.6,29.98,SSW,199,7.0,17.0,74,0.00,,,0.00,Weather View 32 v70,2013-03-23 04:30:00,
2013-03-22 18:35:00,71.3,62.6,29.98,WSW,243,5.0,17.0,74,0.00,,,0.00,Weather View 32 v70,2013-03-23 04:35:00,
2013-03-22 18:40:00,71.1,62.4,29.98,WSW,243,5.0,14.0,74,0.00,,,0.00,Weather View 32 v70,2013-03-23 04:40:00,
2013-03-22 18:45:00,71.1,62.4,29.98,SW,222,4.0,14.0,74,0.00,,,0.00,Weather View 32 v70,2013-03-23 04:45:00,
2013-03-22 18:50:00,71.1,62.0,29.98,WSW,247,5.0,14.0,73,0.00,,,0.00,Weather View 32 v70,2013-03-23 04:50:00,
2013-03-22 18:55:00,71.1,62.0,29.99,SW,216,4.0,14.0,73,0.00,,,0.00,Weather View 32 v70,2013-03-23 04:55:00,
2013-03-22 19:00:00,71.1,61.6,29.99,SW,228,5.0,13.0,72,0.00,,,0.00,Weather View 32 v70,2013-03-23 05:00:00,
2013-03-22 19:05:00,71.1,61.6,29.99,SSW,200,3.0,13.0,72,0.00,,,0.00,Weather View 32 v70,2013-03-23 05:05:00,
2013-03-22 19:10:00,71.2,61.7,29.99,SW,230,7.0,13.0,72,0.00,,,0.00,Weather View 32 v70,2013-03-23 05:10:00,
2013-03-22 19:15:00,71.2,61.3,29.99,SSW,192,8.0,13.0,71,0.00,,,0.00,Weather View 32 v70,2013-03-23 05:15:00,
2013-03-22 19:20:00,71.3,61.0,29.99,SSW,197,7.0,11.0,70,0.00,,,0.00,Weather View 32 v70,2013-03-23 05:20:00,
2013-03-22 19:25:00,71.4,61.1,29.99,SW,228,4.0,14.0,70,0.00,,,0.00,Weather View 32 v70,2013-03-23 05:25:00,
2013-03-22 19:30:00,71.5,61.2,29.99,SSW,200,7.0,14.0,70,0.00,,,0.00,Weather View 32 v70,2013-03-23 05:30:00,
2013-03-22 19:35:00,71.4,60.7,29.99,SW,226,5.0,14.0,69,0.00,,,0.00,Weather View 32 v70,2013-03-23 05:35:00,
2013-03-22 19:40:00,71.4,60.7,29.99,WSW,243,6.0,14.0,69,0.00,,,0.00,Weather View 32 v70,2013-03-23 05:40:00,
2013-03-22 19:45:00,71.4,60.7,29.99,SSW,208,3.0,14.0,69,0.00,,,0.00,Weather View 32 v70,2013-03-23 05:45:00,
2013-03-22 19:50:00,71.3,61.0,29.99,SSE,149,1.0,14.0,70,0.00,,,0.00,Weather View 32 v70,2013-03-23 05:50:00,
2013-03-22 19:55:00,71.2,60.9,29.99,SSW,200,0.0,14.0,70,0.00,,,0.00,Weather View 32 v70,2013-03-23 05:55:00,
2013-03-22 20:00:00,71.2,60.9,29.99,NE,37,0.0,14.0,70,0.00,,,0.00,Weather View 32 v70,2013-03-23 06:00:00,
2013-03-22 20:05:00,71.1,60.8,29.99,WNW,288,0.0,14.0,70,0.00,,,0.00,Weather View 32 v70,2013-03-23 06:05:00,
2013-03-22 20:10:00,71.0,60.7,30.00,NNW,334,3.0,14.0,70,0.00,,,0.00,Weather View 32 v70,2013-03-23 06:10:00,
2013-03-22 20:16:00,71.0,60.7,30.00,NNE,24,1.0,14.0,70,0.00,,,0.00,Weather View 32 v70,2013-03-23 06:16:00,
2013-03-22 20:21:00,71.0,60.7,30.00,SSE,168,2.0,14.0,70,0.00,,,0.00,Weather View 32 v70,2013-03-23 06:21:00,
2013-03-22 20:27:00,71.0,60.7,30.01,SW,224,2.0,13.0,70,0.00,,,0.00,Weather View 32 v70,2013-03-23 06:27:00,
2013-03-22 20:32:00,71.0,61.1,30.01,SSW,195,3.0,13.0,71,0.00,,,0.00,Weather View 32 v70,2013-03-23 06:32:00,
2013-03-22 20:37:00,70.9,61.0,30.01,South,185,1.0,13.0,71,0.00,,,0.00,Weather View 32 v70,2013-03-23 06:37:00,
2013-03-22 20:42:00,70.8,61.3,30.02,WSW,239,2.0,9.0,72,0.00,,,0.00,Weather View 32 v70,2013-03-23 06:42:00,
2013-03-22 20:47:00,70.8,61.3,30.01,West,269,0.0,9.0,72,0.00,,,0.00,Weather View 32 v70,2013-03-23 06:47:00,
2013-03-22 20:52:00,70.9,61.4,30.01,South,189,3.0,9.0,72,0.00,,,0.00,Weather View 32 v70,2013-03-23 06:52:00,
2013-03-22 20:57:00,70.9,61.8,30.01,SW,220,0.0,9.0,73,0.00,,,0.00,Weather View 32 v70,2013-03-23 06:57:00,
2013-03-22 21:02:00,70.9,61.8,30.01,SSW,198,1.0,9.0,73,0.00,,,0.00,Weather View 32 v70,2013-03-23 07:02:00,
2013-03-22 21:07:00,70.7,62.0,30.01,WNW,286,2.0,9.0,74,0.00,,,0.00,Weather View 32 v70,2013-03-23 07:07:00,
2013-03-22 21:12:00,70.5,61.8,30.01,West,261,3.0,9.0,74,0.00,,,0.00,Weather View 32 v70,2013-03-23 07:12:00,
2013-03-22 21:17:00,70.3,61.6,30.02,West,270,4.0,9.0,74,0.00,,,0.00,Weather View 32 v70,2013-03-23 07:17:00,
2013-03-22 21:22:00,70.2,61.5,30.01,West,268,4.0,6.0,74,0.00,,,0.00,Weather View 32 v70,2013-03-23 07:22:00,
2013-03-22 21:27:00,70.2,61.5,30.02,West,278,3.0,6.0,74,0.00,,,0.00,Weather View 32 v70,2013-03-23 07:27:00,
2013-03-22 21:32:00,70.2,61.1,30.01,West,274,3.0,6.0,73,0.00,,,0.00,Weather View 32 v70,2013-03-23 07:32:00,
2013-03-22 21:37:00,70.3,61.2,30.01,WNW,289,0.0,6.0,73,0.00,,,0.00,Weather View 32 v70,2013-03-23 07:37:00,
2013-03-22 21:42:00,70.2,61.1,30.01,West,259,0.0,6.0,73,0.00,,,0.00,Weather View 32 v70,2013-03-23 07:42:00,
2013-03-22 21:47:00,70.1,60.6,30.01,North,353,0.0,6.0,72,0.00,,,0.00,Weather View 32 v70,2013-03-23 07:47:00,
2013-03-22 21:52:00,70.1,60.6,30.01,North,353,1.0,6.0,72,0.00,,,0.00,Weather View 32 v70,2013-03-23 07:52:00,
2013-03-22 21:57:00,70.1,60.6,30.01,NNW,345,3.0,6.0,72,0.00,,,0.00,Weather View 32 v70,2013-03-23 07:57:00,
2013-03-22 22:02:00,70.1,60.2,30.01,NNW,345,0.0,6.0,71,0.00,,,0.00,Weather View 32 v70,2013-03-23 08:02:00,
2013-03-22 22:07:00,70.1,60.2,30.01,SE,145,1.0,6.0,71,0.00,,,0.00,Weather View 32 v70,2013-03-23 08:07:00,
2013-03-22 22:12:00,70.3,60.4,30.01,SSE,154,1.0,6.0,71,0.00,,,0.00,Weather View 32 v70,2013-03-23 08:12:00,
2013-03-22 22:17:00,70.4,60.9,30.01,East,92,1.0,6.0,72,0.00,,,0.00,Weather View 32 v70,2013-03-23 08:17:00,
2013-03-22 22:22:00,70.3,61.2,30.01,NNE,27,1.0,6.0,73,0.00,,,0.00,Weather View 32 v70,2013-03-23 08:22:00,
2013-03-22 22:27:00,70.3,61.6,30.01,NNW,339,3.0,6.0,74,0.00,,,0.00,Weather View 32 v70,2013-03-23 08:27:00,
2013-03-22 22:32:00,70.0,61.3,30.01,NNW,335,0.0,5.0,74,0.00,,,0.00,Weather View 32 v70,2013-03-23 08:32:00,
2013-03-22 22:37:00,69.8,60.7,30.01,NNW,335,0.0,4.0,73,0.00,,,0.00,Weather View 32 v70,2013-03-23 08:37:00,
2013-03-22 22:42:00,69.8,60.7,30.01,NNW,335,0.0,4.0,73,0.00,,,0.00,Weather View 32 v70,2013-03-23 08:42:00,
2013-03-22 22:47:00,69.8,60.7,30.01,NNW,335,0.0,4.0,73,0.00,,,0.00,Weather View 32 v70,2013-03-23 08:47:00,
2013-03-22 22:52:00,69.7,60.6,30.01,NNW,335,0.0,4.0,73,0.00,,,0.00,Weather View 32 v70,2013-03-23 08:52:00,
2013-03-22 22:57:00,69.7,60.6,30.01,NNW,335,2.0,4.0,73,0.00,,,0.00,Weather View 32 v70,2013-03-23 08:57:00,
2013-03-22 23:03:00,69.7,61.0,30.01,NNW,335,2.0,4.0,74,0.00,,,0.00,Weather View 32 v70,2013-03-23 09:03:00,
2013-03-22 23:08:00,69.5,60.4,30.01,NNW,335,0.0,4.0,73,0.00,,,0.00,Weather View 32 v70,2013-03-23 09:08:00,
2013-03-22 23:13:00,69.3,60.6,30.01,NNW,335,1.0,4.0,74,0.00,,,0.00,Weather View 32 v70,2013-03-23 09:13:00,
2013-03-22 23:18:00,69.5,60.8,30.01,NNW,335,1.0,4.0,74,0.00,,,0.00,Weather View 32 v70,2013-03-23 09:18:00,
2013-03-22 23:23:00,69.4,60.7,30.01,NW,306,0.0,4.0,74,0.00,,,0.00,Weather View 32 v70,2013-03-23 09:23:00,
2013-03-22 23:28:00,69.2,60.5,30.01,West,270,2.0,4.0,74,0.00,,,0.00,Weather View 32 v70,2013-03-23 09:28:00,
2013-03-22 23:33:00,69.2,60.5,30.01,WNW,294,1.0,4.0,74,0.00,,,0.00,Weather View 32 v70,2013-03-23 09:33:00,
2013-03-22 23:38:00,69.4,60.7,30.01,West,270,1.0,4.0,74,0.00,,,0.00,Weather View 32 v70,2013-03-23 09:38:00,
2013-03-22 23:43:00,69.7,60.6,30.01,SSW,198,0.0,4.0,73,0.00,,,0.00,Weather View 32 v70,2013-03-23 09:43:00,
2013-03-22 23:48:00,69.9,60.8,30.00,WSW,239,3.0,7.0,73,0.00,,,0.00,Weather View 32 v70,2013-03-23 09:48:00,
2013-03-22 23:53:00,70.1,60.6,30.00,WSW,249,3.0,7.0,72,0.00,,,0.00,Weather View 32 v70,2013-03-23 09:53:00,
2013-03-22 23:58:00,70.3,60.8,30.00,WSW,248,5.0,7.0,72,0.00,,,0.00,Weather View 32 v70,2013-03-23 09:58:00,